createdAt,value
2023-01-03T00:00:07.808Z,1016.92
2023-01-03T00:01:07.755Z,1016.89
2023-01-03T00:02:08.808Z,1016.92
2023-01-03T00:03:07.745Z,1016.98
2023-01-03T00:04:07.828Z,1016.96
2023-01-03T00:05:07.723Z,1017.00
2023-01-03T00:06:07.718Z,1017.00
2023-01-03T00:07:07.757Z,1017.04
2023-01-03T00:08:08.717Z,1017.03
2023-01-03T00:09:07.714Z,1017.03
2023-01-03T00:10:07.714Z,1017.01
2023-01-03T00:11:07.695Z,1017.03
2023-01-03T00:12:07.719Z,1017.03
2023-01-03T00:13:07.681Z,1017.07
2023-01-03T00:14:08.697Z,1017.04
2023-01-03T00:15:07.689Z,1017.10
2023-01-03T00:16:07.755Z,1017.07
2023-01-03T00:17:07.778Z,1017.08
2023-01-03T00:18:07.678Z,1017.12
2023-01-03T00:19:07.669Z,1017.08
2023-01-03T00:20:08.660Z,1017.11
2023-01-03T00:21:07.670Z,1017.10
2023-01-03T00:22:07.654Z,1017.13
2023-01-03T00:23:07.654Z,1017.19
2023-01-03T00:24:07.665Z,1017.20
2023-01-03T00:25:07.632Z,1017.24
2023-01-03T00:26:08.643Z,1017.23
2023-01-03T00:27:07.631Z,1017.24
2023-01-03T00:28:07.624Z,1017.24
2023-01-03T00:29:07.641Z,1017.24
2023-01-03T00:30:07.616Z,1017.25
2023-01-03T00:31:07.669Z,1017.24
2023-01-03T00:32:08.601Z,1017.27
2023-01-03T00:33:07.622Z,1017.28
2023-01-03T00:34:07.587Z,1017.33
2023-01-03T00:35:07.590Z,1017.32
2023-01-03T00:36:07.579Z,1017.38
2023-01-03T00:37:07.588Z,1017.41
2023-01-03T00:38:08.585Z,1017.45
2023-01-03T00:39:07.605Z,1017.48
2023-01-03T00:40:07.568Z,1017.44
2023-01-03T00:41:07.571Z,1017.48
2023-01-03T00:42:07.563Z,1017.48
2023-01-03T00:43:07.551Z,1017.45
2023-01-03T00:44:08.562Z,1017.48
2023-01-03T00:45:10.533Z,1017.53
2023-01-03T00:46:07.594Z,1017.51
2023-01-03T00:47:07.547Z,1017.51
2023-01-03T00:48:07.543Z,1017.52
2023-01-03T00:49:07.545Z,1017.59
2023-01-03T00:50:08.532Z,1017.59
2023-01-03T00:51:07.521Z,1017.57
2023-01-03T00:52:07.529Z,1017.61
2023-01-03T00:53:07.515Z,1017.65
2023-01-03T00:54:07.503Z,1017.65
2023-01-03T00:55:07.519Z,1017.69
2023-01-03T00:56:08.518Z,1017.70
2023-01-03T00:57:07.497Z,1017.70
2023-01-03T00:58:07.483Z,1017.70
2023-01-03T00:59:07.478Z,1017.77
2023-01-03T01:00:07.471Z,1017.77
2023-01-03T01:01:07.602Z,1017.77
2023-01-03T01:02:08.627Z,1017.76
2023-01-03T01:03:07.658Z,1017.72
2023-01-03T01:04:07.519Z,1017.71
2023-01-03T01:05:07.474Z,1017.79
2023-01-03T01:06:07.460Z,1017.73
2023-01-03T01:07:07.449Z,1017.79
2023-01-03T01:08:08.448Z,1017.82
2023-01-03T01:09:07.440Z,1017.81
2023-01-03T01:10:07.423Z,1017.90
2023-01-03T01:11:07.426Z,1017.85
2023-01-03T01:12:07.510Z,1017.89
2023-01-03T01:13:07.428Z,1017.86
2023-01-03T01:14:08.426Z,1017.85
2023-01-03T01:15:07.412Z,1017.85
2023-01-03T01:16:07.438Z,1017.88
2023-01-03T01:17:07.426Z,1017.96
2023-01-03T01:18:07.393Z,1018.06
2023-01-03T01:19:07.415Z,1017.99
2023-01-03T01:20:08.393Z,1018.02
2023-01-03T01:21:07.388Z,1018.05
2023-01-03T01:22:07.368Z,1018.07
2023-01-03T01:23:07.405Z,1018.13
2023-01-03T01:24:09.613Z,1018.10
2023-01-03T01:25:07.376Z,1018.18
2023-01-03T01:26:08.369Z,1018.16
2023-01-03T01:27:07.367Z,1018.22
2023-01-03T01:28:07.347Z,1018.24
2023-01-03T01:29:07.343Z,1018.27
2023-01-03T01:30:07.372Z,1018.27
2023-01-03T01:31:07.382Z,1018.28
2023-01-03T01:32:08.348Z,1018.32
2023-01-03T01:33:07.334Z,1018.33
2023-01-03T01:34:07.317Z,1018.29
2023-01-03T01:35:07.319Z,1018.37
2023-01-03T01:36:07.303Z,1018.43
2023-01-03T01:37:07.306Z,1018.34
2023-01-03T01:38:08.319Z,1018.37
2023-01-03T01:39:07.315Z,1018.40
2023-01-03T01:40:07.285Z,1018.43
2023-01-03T01:41:07.308Z,1018.45
2023-01-03T01:42:07.281Z,1018.40
2023-01-03T01:43:07.350Z,1018.40
2023-01-03T01:44:08.275Z,1018.45
2023-01-03T01:45:07.292Z,1018.46
2023-01-03T01:46:07.337Z,1018.51
2023-01-03T01:47:07.282Z,1018.50
2023-01-03T01:48:07.254Z,1018.49
2023-01-03T01:49:07.255Z,1018.49
2023-01-03T01:50:08.258Z,1018.49
2023-01-03T01:51:07.254Z,1018.51
2023-01-03T01:52:07.229Z,1018.52
2023-01-03T01:53:07.304Z,1018.51
2023-01-03T01:54:07.229Z,1018.56
2023-01-03T01:55:07.235Z,1018.57
2023-01-03T01:56:08.238Z,1018.58
2023-01-03T01:57:07.230Z,1018.57
2023-01-03T01:58:07.225Z,1018.57
2023-01-03T01:59:07.240Z,1018.60
2023-01-03T02:00:07.197Z,1018.61
2023-01-03T02:01:07.281Z,1018.56
2023-01-03T02:02:08.298Z,1018.57
2023-01-03T02:03:07.316Z,1018.61
2023-01-03T02:04:07.171Z,1018.60
2023-01-03T02:05:07.201Z,1018.61
2023-01-03T02:06:07.166Z,1018.62
2023-01-03T02:07:07.182Z,1018.68
2023-01-03T02:08:08.201Z,1018.59
2023-01-03T02:09:07.165Z,1018.64
2023-01-03T02:10:07.155Z,1018.59
2023-01-03T02:11:07.186Z,1018.59
2023-01-03T02:12:07.142Z,1018.63
2023-01-03T02:13:07.195Z,1018.67
2023-01-03T02:14:08.166Z,1018.70
2023-01-03T02:15:07.131Z,1018.71
2023-01-03T02:16:07.200Z,1018.70
2023-01-03T02:17:07.140Z,1018.74
2023-01-03T02:18:07.119Z,1018.76
2023-01-03T02:19:07.117Z,1018.73
2023-01-03T02:20:08.124Z,1018.75
2023-01-03T02:21:07.164Z,1018.73
2023-01-03T02:22:07.095Z,1018.78
2023-01-03T02:23:07.112Z,1018.84
2023-01-03T02:24:07.094Z,1018.84
2023-01-03T02:25:07.093Z,1018.86
2023-01-03T02:26:08.094Z,1018.85
2023-01-03T02:27:07.093Z,1018.93
2023-01-03T02:28:07.074Z,1018.91
2023-01-03T02:29:07.074Z,1018.97
2023-01-03T02:30:07.047Z,1019.03
2023-01-03T02:31:07.075Z,1018.94
2023-01-03T02:32:08.070Z,1019.01
2023-01-03T02:33:07.088Z,1019.03
2023-01-03T02:34:07.037Z,1019.03
2023-01-03T02:35:07.055Z,1019.07
2023-01-03T02:36:07.030Z,1019.08
2023-01-03T02:37:07.029Z,1019.07
2023-01-03T02:38:08.029Z,1019.04
2023-01-03T02:39:07.023Z,1019.04
2023-01-03T02:40:07.013Z,1019.09
2023-01-03T02:41:07.007Z,1019.10
2023-01-03T02:42:06.999Z,1019.16
2023-01-03T02:43:07.011Z,1019.05
2023-01-03T02:44:08.004Z,1019.07
2023-01-03T02:45:06.990Z,1019.08
2023-01-03T02:46:07.002Z,1019.09
2023-01-03T02:47:07.095Z,1019.12
2023-01-03T02:48:06.965Z,1019.09
2023-01-03T02:49:06.972Z,1019.08
2023-01-03T02:50:08.027Z,1019.11
2023-01-03T02:51:06.967Z,1019.11
2023-01-03T02:52:06.949Z,1019.13
2023-01-03T02:53:06.958Z,1019.13
2023-01-03T02:54:06.940Z,1019.21
2023-01-03T02:55:06.965Z,1019.15
2023-01-03T02:56:07.959Z,1019.16
2023-01-03T02:57:06.936Z,1019.20
2023-01-03T02:58:06.937Z,1019.20
2023-01-03T02:59:06.948Z,1019.23
2023-01-03T03:00:06.916Z,1019.27
2023-01-03T03:01:06.951Z,1019.32
2023-01-03T03:02:07.973Z,1019.32
2023-01-03T03:03:07.032Z,1019.33
2023-01-03T03:04:06.910Z,1019.37
2023-01-03T03:05:06.893Z,1019.38
2023-01-03T03:06:06.888Z,1019.38
2023-01-03T03:07:06.889Z,1019.39
2023-01-03T03:08:07.874Z,1019.36
2023-01-03T03:09:06.875Z,1019.37
2023-01-03T03:10:06.867Z,1019.43
2023-01-03T03:11:06.859Z,1019.38
2023-01-03T03:12:06.862Z,1019.36
2023-01-03T03:13:06.841Z,1019.41
2023-01-03T03:14:07.860Z,1019.40
2023-01-03T03:15:06.839Z,1019.40
2023-01-03T03:16:06.885Z,1019.39
2023-01-03T03:17:06.833Z,1019.36
2023-01-03T03:18:06.844Z,1019.40
2023-01-03T03:19:06.824Z,1019.35
2023-01-03T03:20:07.832Z,1019.40
2023-01-03T03:21:06.801Z,1019.40
2023-01-03T03:22:06.817Z,1019.42
2023-01-03T03:23:06.793Z,1019.44
2023-01-03T03:24:06.797Z,1019.39
2023-01-03T03:25:06.798Z,1019.45
2023-01-03T03:26:07.862Z,1019.48
2023-01-03T03:27:06.768Z,1019.45
2023-01-03T03:28:06.777Z,1019.45
2023-01-03T03:29:06.763Z,1019.47
2023-01-03T03:30:06.785Z,1019.46
2023-01-03T03:31:06.788Z,1019.45
2023-01-03T03:32:07.771Z,1019.48
2023-01-03T03:33:06.766Z,1019.47
2023-01-03T03:34:06.775Z,1019.49
2023-01-03T03:35:06.731Z,1019.47
2023-01-03T03:36:06.736Z,1019.50
2023-01-03T03:37:06.741Z,1019.55
2023-01-03T03:38:07.739Z,1019.52
2023-01-03T03:39:06.725Z,1019.54
2023-01-03T03:40:06.724Z,1019.54
2023-01-03T03:41:06.703Z,1019.54
2023-01-03T03:42:06.724Z,1019.53
2023-01-03T03:43:06.751Z,1019.58
2023-01-03T03:44:07.707Z,1019.60
2023-01-03T03:45:06.708Z,1019.59
2023-01-03T03:46:06.704Z,1019.60
2023-01-03T03:47:06.709Z,1019.59
2023-01-03T03:48:06.680Z,1019.64
2023-01-03T03:49:06.669Z,1019.67
2023-01-03T03:50:07.697Z,1019.66
2023-01-03T03:51:06.652Z,1019.67
2023-01-03T03:52:06.651Z,1019.74
2023-01-03T03:53:06.637Z,1019.74
2023-01-03T03:54:06.645Z,1019.76
2023-01-03T03:55:06.674Z,1019.76
2023-01-03T03:56:07.653Z,1019.74
2023-01-03T03:57:06.630Z,1019.76
2023-01-03T03:58:06.691Z,1019.74
2023-01-03T03:59:06.614Z,1019.78
2023-01-03T04:00:06.637Z,1019.80
2023-01-03T04:01:06.647Z,1019.84
2023-01-03T04:02:07.685Z,1019.80
2023-01-03T04:03:06.676Z,1019.83
2023-01-03T04:04:06.666Z,1019.82
2023-01-03T04:05:06.579Z,1019.81
2023-01-03T04:06:06.593Z,1019.87
2023-01-03T04:07:06.565Z,1019.87
2023-01-03T04:08:07.613Z,1019.86
2023-01-03T04:09:06.551Z,1019.86
2023-01-03T04:10:06.561Z,1019.95
2023-01-03T04:11:06.529Z,1019.94
2023-01-03T04:12:06.536Z,1019.93
2023-01-03T04:13:06.538Z,1019.97
2023-01-03T04:14:07.552Z,1020.01
2023-01-03T04:15:06.516Z,1020.01
2023-01-03T04:16:06.606Z,1020.03
2023-01-03T04:17:06.501Z,1020.04
2023-01-03T04:18:06.513Z,1020.05
2023-01-03T04:19:06.530Z,1020.07
2023-01-03T04:20:07.525Z,1020.05
2023-01-03T04:21:06.524Z,1020.12
2023-01-03T04:22:06.503Z,1020.11
2023-01-03T04:23:06.493Z,1020.11
2023-01-03T04:24:06.513Z,1020.18
2023-01-03T04:25:06.486Z,1020.15
2023-01-03T04:26:07.481Z,1020.15
2023-01-03T04:27:06.472Z,1020.17
2023-01-03T04:28:06.473Z,1020.17
2023-01-03T04:29:06.440Z,1020.14
2023-01-03T04:30:06.451Z,1020.15
2023-01-03T04:31:06.436Z,1020.25
2023-01-03T04:32:07.508Z,1020.26
2023-01-03T04:33:06.416Z,1020.24
2023-01-03T04:34:06.421Z,1020.31
2023-01-03T04:35:06.457Z,1020.29
2023-01-03T04:36:06.422Z,1020.29
2023-01-03T04:37:06.399Z,1020.31
2023-01-03T04:38:07.416Z,1020.33
2023-01-03T04:39:06.387Z,1020.34
2023-01-03T04:40:06.381Z,1020.36
2023-01-03T04:41:06.363Z,1020.35
2023-01-03T04:42:06.385Z,1020.38
2023-01-03T04:43:06.376Z,1020.39
2023-01-03T04:44:07.385Z,1020.40
2023-01-03T04:45:06.356Z,1020.41
2023-01-03T04:46:06.417Z,1020.43
2023-01-03T04:47:06.349Z,1020.49
2023-01-03T04:48:06.341Z,1020.45
2023-01-03T04:49:06.327Z,1020.45
2023-01-03T04:50:07.337Z,1020.54
2023-01-03T04:51:06.322Z,1020.51
2023-01-03T04:52:06.328Z,1020.57
2023-01-03T04:53:06.323Z,1020.56
2023-01-03T04:54:06.306Z,1020.55
2023-01-03T04:55:06.295Z,1020.54
2023-01-03T04:56:07.319Z,1020.51
2023-01-03T04:57:06.282Z,1020.53
2023-01-03T04:58:06.298Z,1020.51
2023-01-03T04:59:06.266Z,1020.52
2023-01-03T05:00:06.271Z,1020.54
2023-01-03T05:01:06.355Z,1020.57
2023-01-03T05:02:07.357Z,1020.59
2023-01-03T05:03:06.252Z,1020.59
2023-01-03T05:04:06.389Z,1020.65
2023-01-03T05:05:06.263Z,1020.64
2023-01-03T05:06:06.246Z,1020.63
2023-01-03T05:07:06.281Z,1020.62
2023-01-03T05:08:07.273Z,1020.70
2023-01-03T05:09:06.240Z,1020.66
2023-01-03T05:10:06.224Z,1020.69
2023-01-03T05:11:06.199Z,1020.70
2023-01-03T05:12:06.211Z,1020.72
2023-01-03T05:13:06.199Z,1020.72
2023-01-03T05:14:14.003Z,1020.75
2023-01-03T05:15:06.188Z,1020.74
2023-01-03T05:16:06.214Z,1020.73
2023-01-03T05:17:06.220Z,1020.71
2023-01-03T05:18:06.172Z,1020.73
2023-01-03T05:19:06.159Z,1020.78
2023-01-03T05:20:07.179Z,1020.73
2023-01-03T05:21:06.162Z,1020.79
2023-01-03T05:22:06.149Z,1020.77
2023-01-03T05:23:06.139Z,1020.78
2023-01-03T05:24:06.151Z,1020.79
2023-01-03T05:25:06.120Z,1020.79
2023-01-03T05:26:07.144Z,1020.79
2023-01-03T05:27:06.110Z,1020.81
2023-01-03T05:28:07.110Z,1020.79
2023-01-03T05:29:06.104Z,1020.83
2023-01-03T05:30:06.113Z,1020.82
2023-01-03T05:31:06.087Z,1020.78
2023-01-03T05:32:07.193Z,1020.78
2023-01-03T05:33:06.082Z,1020.76
2023-01-03T05:34:06.091Z,1020.77
2023-01-03T05:35:06.057Z,1020.75
2023-01-03T05:36:06.058Z,1020.78
2023-01-03T05:37:06.053Z,1020.77
2023-01-03T05:38:07.073Z,1020.79
2023-01-03T05:39:06.037Z,1020.79
2023-01-03T05:40:06.052Z,1020.80
2023-01-03T05:41:06.049Z,1020.75
2023-01-03T05:42:06.040Z,1020.80
2023-01-03T05:43:06.044Z,1020.83
2023-01-03T05:44:07.044Z,1020.87
2023-01-03T05:45:06.004Z,1020.89
2023-01-03T05:46:06.115Z,1020.89
2023-01-03T05:47:05.994Z,1020.90
2023-01-03T05:48:06.004Z,1020.96
2023-01-03T05:49:05.994Z,1020.94
2023-01-03T05:50:07.001Z,1020.97
2023-01-03T05:51:05.972Z,1020.95
2023-01-03T05:52:06.013Z,1020.94
2023-01-03T05:53:05.954Z,1020.94
2023-01-03T05:54:05.953Z,1020.95
2023-01-03T05:55:05.941Z,1020.97
2023-01-03T05:56:06.977Z,1020.95
2023-01-03T05:57:05.939Z,1020.98
2023-01-03T05:58:05.953Z,1021.01
2023-01-03T05:59:05.925Z,1020.99
2023-01-03T06:00:05.931Z,1021.01
2023-01-03T06:01:05.979Z,1021.03
2023-01-03T06:02:07.006Z,1021.06
2023-01-03T06:03:05.988Z,1021.10
2023-01-03T06:04:05.937Z,1021.11
2023-01-03T06:05:05.918Z,1021.14
2023-01-03T06:06:05.909Z,1021.19
2023-01-03T06:07:05.874Z,1021.20
2023-01-03T06:08:06.891Z,1021.18
2023-01-03T06:09:05.872Z,1021.20
2023-01-03T06:10:05.867Z,1021.17
2023-01-03T06:11:05.871Z,1021.18
2023-01-03T06:12:05.901Z,1021.17
2023-01-03T06:13:05.850Z,1021.20
2023-01-03T06:14:06.852Z,1021.20
2023-01-03T06:15:05.831Z,1021.16
2023-01-03T06:16:05.836Z,1021.23
2023-01-03T06:17:05.927Z,1021.15
2023-01-03T06:18:05.817Z,1021.17
2023-01-03T06:19:05.824Z,1021.18
2023-01-03T06:20:06.835Z,1021.24
2023-01-03T06:21:05.788Z,1021.22
2023-01-03T06:22:10.814Z,1021.23
2023-01-03T06:23:05.775Z,1021.29
2023-01-03T06:24:05.792Z,1021.27
2023-01-03T06:25:05.764Z,1021.26
2023-01-03T06:26:06.775Z,1021.25
2023-01-03T06:27:05.746Z,1021.27
2023-01-03T06:28:05.757Z,1021.26
2023-01-03T06:29:05.732Z,1021.26
2023-01-03T06:30:05.743Z,1021.27
2023-01-03T06:31:05.798Z,1021.27
2023-01-03T06:32:09.473Z,1021.27
2023-01-03T06:33:05.714Z,1021.30
2023-01-03T06:34:05.720Z,1021.31
2023-01-03T06:35:05.708Z,1021.35
2023-01-03T06:36:05.706Z,1021.36
2023-01-03T06:37:05.705Z,1021.39
2023-01-03T06:38:06.712Z,1021.42
2023-01-03T06:39:05.680Z,1021.48
2023-01-03T06:40:05.680Z,1021.41
2023-01-03T06:41:05.707Z,1021.38
2023-01-03T06:42:05.687Z,1021.41
2023-01-03T06:43:05.655Z,1021.38
2023-01-03T06:44:06.695Z,1021.41
2023-01-03T06:45:05.643Z,1021.40
2023-01-03T06:46:05.674Z,1021.39
2023-01-03T06:47:05.718Z,1021.38
2023-01-03T06:48:05.628Z,1021.43
2023-01-03T06:49:05.630Z,1021.40
2023-01-03T06:50:06.650Z,1021.45
2023-01-03T06:51:05.608Z,1021.44
2023-01-03T06:52:05.635Z,1021.46
2023-01-03T06:53:05.611Z,1021.48
2023-01-03T06:54:05.594Z,1021.45
2023-01-03T06:55:05.611Z,1021.46
2023-01-03T06:56:06.604Z,1021.47
2023-01-03T06:57:05.595Z,1021.55
2023-01-03T06:58:05.576Z,1021.57
2023-01-03T06:59:05.562Z,1021.59
2023-01-03T07:00:05.565Z,1021.63
2023-01-03T07:01:05.604Z,1021.68
2023-01-03T07:02:06.691Z,1021.68
2023-01-03T07:03:10.865Z,1021.67
2023-01-03T07:04:05.598Z,1021.69
2023-01-03T07:05:05.512Z,1021.71
2023-01-03T07:06:05.534Z,1021.73
2023-01-03T07:07:05.509Z,1021.73
2023-01-03T07:08:06.512Z,1021.73
2023-01-03T07:09:05.513Z,1021.72
2023-01-03T07:10:05.491Z,1021.73
2023-01-03T07:11:05.472Z,1021.73
2023-01-03T07:12:05.506Z,1021.74
2023-01-03T07:13:05.500Z,1021.79
2023-01-03T07:14:06.533Z,1021.85
2023-01-03T07:15:05.465Z,1021.83
2023-01-03T07:16:05.489Z,1021.80
2023-01-03T07:17:05.447Z,1021.83
2023-01-03T07:18:05.463Z,1021.83
2023-01-03T07:19:05.471Z,1021.86
2023-01-03T07:20:06.489Z,1021.86
2023-01-03T07:21:05.427Z,1021.88
2023-01-03T07:22:05.433Z,1021.95
2023-01-03T07:23:05.406Z,1021.92
2023-01-03T07:24:05.445Z,1021.90
2023-01-03T07:25:05.436Z,1021.96
2023-01-03T07:26:06.396Z,1021.97
2023-01-03T07:27:05.415Z,1021.95
2023-01-03T07:28:07.273Z,1021.98
2023-01-03T07:29:05.422Z,1021.95
2023-01-03T07:30:05.396Z,1021.98
2023-01-03T07:31:05.434Z,1022.00
2023-01-03T07:32:06.372Z,1021.99
2023-01-03T07:33:05.382Z,1022.01
2023-01-03T07:34:05.335Z,1022.01
2023-01-03T07:35:05.343Z,1021.98
2023-01-03T07:36:11.209Z,1021.98
2023-01-03T07:37:05.336Z,1021.99
2023-01-03T07:38:06.354Z,1022.00
2023-01-03T07:39:05.331Z,1022.00
2023-01-03T07:40:05.312Z,1022.00
2023-01-03T07:41:05.307Z,1022.03
2023-01-03T07:42:05.308Z,1022.02
2023-01-03T07:43:05.312Z,1022.03
2023-01-03T07:44:06.300Z,1022.02
2023-01-03T07:45:05.315Z,1022.04
2023-01-03T07:46:05.326Z,1022.00
2023-01-03T07:47:05.334Z,1022.06
2023-01-03T07:48:05.306Z,1022.03
2023-01-03T07:49:11.237Z,1022.03
2023-01-03T07:50:06.244Z,1022.05
2023-01-03T07:51:05.249Z,1022.07
2023-01-03T07:52:05.252Z,1022.08
2023-01-03T07:53:05.243Z,1022.13
2023-01-03T07:54:05.288Z,1022.09
2023-01-03T07:55:05.258Z,1022.11
2023-01-03T07:56:12.448Z,1022.12
2023-01-03T07:57:05.224Z,1022.11
2023-01-03T07:58:05.225Z,1022.13
2023-01-03T07:59:05.242Z,1022.13
2023-01-03T08:00:05.217Z,1022.14
2023-01-03T08:01:05.211Z,1022.16
2023-01-03T08:02:06.307Z,1022.15
2023-01-03T08:03:10.418Z,1022.18
2023-01-03T08:04:05.191Z,1022.19
2023-01-03T08:05:05.229Z,1022.21
2023-01-03T08:06:05.156Z,1022.24
2023-01-03T08:07:05.183Z,1022.23
2023-01-03T08:08:06.182Z,1022.26
2023-01-03T08:09:06.414Z,1022.27
2023-01-03T08:10:05.131Z,1022.25
2023-01-03T08:11:05.129Z,1022.26
2023-01-03T08:12:05.128Z,1022.30
2023-01-03T08:13:05.095Z,1022.37
2023-01-03T08:14:06.153Z,1022.35
2023-01-03T08:15:05.098Z,1022.40
2023-01-03T08:16:05.173Z,1022.44
2023-01-03T08:17:05.103Z,1022.41
2023-01-03T08:18:05.070Z,1022.42
2023-01-03T08:19:05.111Z,1022.41
2023-01-03T08:20:06.081Z,1022.44
2023-01-03T08:21:05.039Z,1022.45
2023-01-03T08:22:05.044Z,1022.46
2023-01-03T08:23:05.044Z,1022.46
2023-01-03T08:24:05.037Z,1022.45
2023-01-03T08:25:05.015Z,1022.49
2023-01-03T08:26:06.044Z,1022.50
2023-01-03T08:27:05.050Z,1022.47
2023-01-03T08:28:04.996Z,1022.54
2023-01-03T08:29:05.056Z,1022.51
2023-01-03T08:30:05.105Z,1022.54
2023-01-03T08:31:05.101Z,1022.57
2023-01-03T08:32:05.990Z,1022.59
2023-01-03T08:33:05.001Z,1022.59
2023-01-03T08:34:10.307Z,1022.54
2023-01-03T08:35:04.962Z,1022.55
2023-01-03T08:36:04.958Z,1022.58
2023-01-03T08:37:04.953Z,1022.57
2023-01-03T08:38:05.938Z,1022.61
2023-01-03T08:39:04.940Z,1022.63
2023-01-03T08:40:04.946Z,1022.63
2023-01-03T08:41:04.939Z,1022.62
2023-01-03T08:42:04.954Z,1022.67
2023-01-03T08:43:04.913Z,1022.63
2023-01-03T08:44:05.963Z,1022.60
2023-01-03T08:45:04.896Z,1022.64
2023-01-03T08:46:04.897Z,1022.66
2023-01-03T08:47:06.930Z,1022.69
2023-01-03T08:48:04.867Z,1022.69
2023-01-03T08:49:04.923Z,1022.69
2023-01-03T08:50:05.868Z,1022.67
2023-01-03T08:51:04.891Z,1022.70
2023-01-03T08:52:04.853Z,1022.71
2023-01-03T08:53:04.849Z,1022.74
2023-01-03T08:54:04.837Z,1022.72
2023-01-03T08:55:04.829Z,1022.69
2023-01-03T08:56:05.843Z,1022.74
2023-01-03T08:57:04.842Z,1022.74
2023-01-03T08:58:04.817Z,1022.73
2023-01-03T08:59:04.823Z,1022.79
2023-01-03T09:00:04.795Z,1022.81
2023-01-03T09:01:04.806Z,1022.83
2023-01-03T09:02:05.913Z,1022.84
2023-01-03T09:03:05.088Z,1022.83
2023-01-03T09:04:04.854Z,1022.85
2023-01-03T09:05:04.800Z,1022.83
2023-01-03T09:06:04.759Z,1022.88
2023-01-03T09:07:04.801Z,1022.93
2023-01-03T09:08:05.766Z,1022.94
2023-01-03T09:09:04.766Z,1022.94
2023-01-03T09:10:04.786Z,1022.96
2023-01-03T09:11:04.754Z,1022.96
2023-01-03T09:12:04.749Z,1022.97
2023-01-03T09:13:04.773Z,1023.01
2023-01-03T09:14:05.794Z,1023.04
2023-01-03T09:15:04.835Z,1023.04
2023-01-03T09:16:04.807Z,1023.08
2023-01-03T09:17:04.745Z,1023.12
2023-01-03T09:18:04.717Z,1023.11
2023-01-03T09:19:04.736Z,1023.15
2023-01-03T09:20:05.754Z,1023.17
2023-01-03T09:21:04.738Z,1023.22
2023-01-03T09:22:04.728Z,1023.19
2023-01-03T09:23:04.719Z,1023.23
2023-01-03T09:24:04.715Z,1023.20
2023-01-03T09:25:04.741Z,1023.25
2023-01-03T09:26:05.729Z,1023.27
2023-01-03T09:27:04.771Z,1023.19
2023-01-03T09:28:04.743Z,1023.22
2023-01-03T09:29:04.724Z,1023.24
2023-01-03T09:30:04.730Z,1023.17
2023-01-03T09:31:04.741Z,1023.26
2023-01-03T09:32:05.774Z,1023.23
2023-01-03T09:33:04.712Z,1023.23
2023-01-03T09:34:04.746Z,1023.20
2023-01-03T09:35:04.746Z,1023.26
2023-01-03T09:36:04.707Z,1023.21
2023-01-03T09:37:04.801Z,1023.21
2023-01-03T09:38:05.726Z,1023.27
2023-01-03T09:39:04.743Z,1023.24
2023-01-03T09:40:04.695Z,1023.24
2023-01-03T09:41:04.703Z,1023.23
2023-01-03T09:42:04.729Z,1023.26
2023-01-03T09:43:04.749Z,1023.27
2023-01-03T09:44:05.707Z,1023.25
2023-01-03T09:45:04.729Z,1023.29
2023-01-03T09:46:04.691Z,1023.31
2023-01-03T09:47:04.809Z,1023.32
2023-01-03T09:48:04.735Z,1023.25
2023-01-03T09:49:04.704Z,1023.21
2023-01-03T09:50:39.343Z,1023.23
2023-01-03T09:52:08.655Z,1023.19
2023-01-03T09:53:08.647Z,1023.23
2023-01-03T09:55:12.639Z,1023.25
2023-01-03T09:56:12.661Z,1023.23
2023-01-03T09:58:16.637Z,1023.27
2023-01-03T09:59:16.636Z,1023.20
2023-01-03T10:01:09.746Z,1023.22
2023-01-03T10:02:09.903Z,1023.17
2023-01-03T10:04:13.635Z,1023.22
2023-01-03T10:05:13.561Z,1023.22
2023-01-03T10:07:17.571Z,1023.23
2023-01-03T10:08:17.577Z,1023.25
2023-01-03T10:10:14.466Z,1023.21
2023-01-03T10:11:11.520Z,1023.17
2023-01-03T10:12:11.491Z,1023.21
2023-01-03T10:13:17.854Z,1023.21
2023-01-03T10:14:11.500Z,1023.16
2023-01-03T10:15:11.495Z,1023.22
2023-01-03T10:16:11.532Z,1023.15
2023-01-03T10:17:11.485Z,1023.16
2023-01-03T10:18:11.495Z,1023.18
2023-01-03T10:19:11.483Z,1023.21
2023-01-03T10:20:11.491Z,1023.19
2023-01-03T10:21:11.487Z,1023.20
2023-01-03T10:22:11.514Z,1023.13
2023-01-03T10:23:11.476Z,1023.17
2023-01-03T10:24:11.472Z,1023.13
2023-01-03T10:25:11.483Z,1023.21
2023-01-03T10:26:11.466Z,1023.21
2023-01-03T10:27:11.508Z,1023.16
2023-01-03T10:28:11.466Z,1023.17
2023-01-03T10:29:11.466Z,1023.18
2023-01-03T10:30:11.463Z,1023.17
2023-01-03T10:31:11.454Z,1023.17
2023-01-03T10:32:11.633Z,1023.17
2023-01-03T10:33:11.452Z,1023.10
2023-01-03T10:34:11.482Z,1023.13
2023-01-03T10:35:11.496Z,1023.14
2023-01-03T10:36:11.461Z,1023.15
2023-01-03T10:37:11.433Z,1023.14
2023-01-03T10:38:11.483Z,1023.14
2023-01-03T10:39:11.474Z,1023.11
2023-01-03T10:40:11.567Z,1023.12
2023-01-03T10:41:11.416Z,1023.13
2023-01-03T10:42:11.461Z,1023.06
2023-01-03T10:43:11.433Z,1023.09
2023-01-03T10:44:11.440Z,1023.06
2023-01-03T10:45:11.391Z,1023.11
2023-01-03T10:46:11.465Z,1023.15
2023-01-03T10:47:11.419Z,1023.11
2023-01-03T10:48:11.400Z,1023.10
2023-01-03T10:49:28.983Z,1023.13
2023-01-03T10:50:11.373Z,1023.08
2023-01-03T10:51:11.385Z,1023.10
2023-01-03T10:52:11.377Z,1023.12
2023-01-03T10:53:11.375Z,1023.12
2023-01-03T10:54:11.372Z,1023.17
2023-01-03T10:55:11.356Z,1023.21
2023-01-03T10:56:11.401Z,1023.19
2023-01-03T10:57:11.366Z,1023.18
2023-01-03T10:58:11.341Z,1023.22
2023-01-03T10:59:11.335Z,1023.18
2023-01-03T11:00:11.334Z,1023.27
2023-01-03T11:01:11.543Z,1023.21
2023-01-03T11:02:11.629Z,1023.17
2023-01-03T11:03:11.545Z,1023.19
2023-01-03T11:04:11.355Z,1023.21
2023-01-03T11:05:11.324Z,1023.18
2023-01-03T11:06:11.333Z,1023.19
2023-01-03T11:07:11.301Z,1023.21
2023-01-03T11:08:11.306Z,1023.18
2023-01-03T11:09:11.322Z,1023.15
2023-01-03T11:10:11.297Z,1023.13
2023-01-03T11:11:11.405Z,1023.13
2023-01-03T11:12:11.280Z,1023.09
2023-01-03T11:13:11.287Z,1023.09
2023-01-03T11:14:11.375Z,1023.04
2023-01-03T11:15:11.283Z,1023.10
2023-01-03T11:16:11.281Z,1023.07
2023-01-03T11:17:11.275Z,1023.09
2023-01-03T11:18:11.248Z,1023.13
2023-01-03T11:19:11.240Z,1023.11
2023-01-03T11:20:11.329Z,1023.11
2023-01-03T11:21:11.242Z,1023.13
2023-01-03T11:22:11.229Z,1023.18
2023-01-03T11:23:11.218Z,1023.10
2023-01-03T11:24:11.345Z,1023.12
2023-01-03T11:25:11.229Z,1023.08
2023-01-03T11:26:11.213Z,1023.08
2023-01-03T11:27:11.274Z,1023.06
2023-01-03T11:28:15.955Z,1023.03
2023-01-03T11:29:11.207Z,1023.07
2023-01-03T11:30:16.047Z,1023.08
2023-01-03T11:31:11.210Z,1023.08
2023-01-03T11:32:11.227Z,1023.07
2023-01-03T11:33:11.173Z,1023.06
2023-01-03T11:34:11.180Z,1023.11
2023-01-03T11:35:23.050Z,1023.09
2023-01-03T11:36:11.210Z,1023.12
2023-01-03T11:37:11.170Z,1023.11
2023-01-03T11:38:11.155Z,1023.09
2023-01-03T11:39:16.195Z,1023.10
2023-01-03T11:40:11.145Z,1023.06
2023-01-03T11:41:11.129Z,1023.04
2023-01-03T11:42:11.134Z,1023.05
2023-01-03T11:43:11.131Z,1022.97
2023-01-03T11:44:11.128Z,1022.95
2023-01-03T11:45:11.130Z,1022.99
2023-01-03T11:46:11.212Z,1023.01
2023-01-03T11:47:11.115Z,1022.93
2023-01-03T11:48:11.103Z,1022.92
2023-01-03T11:49:11.125Z,1022.94
2023-01-03T11:50:11.121Z,1022.94
2023-01-03T11:51:11.084Z,1023.00
2023-01-03T11:52:11.103Z,1022.99
2023-01-03T11:53:11.082Z,1023.05
2023-01-03T11:54:11.076Z,1023.06
2023-01-03T11:55:11.104Z,1023.03
2023-01-03T11:56:11.077Z,1023.08
2023-01-03T11:57:11.056Z,1023.08
2023-01-03T11:58:11.076Z,1023.13
2023-01-03T11:59:11.078Z,1023.08
2023-01-03T12:00:11.049Z,1023.06
2023-01-03T12:01:11.059Z,1023.08
2023-01-03T12:02:11.140Z,1023.08
2023-01-03T12:03:11.226Z,1023.08
2023-01-03T12:04:11.132Z,1023.10
2023-01-03T12:05:11.029Z,1023.10
2023-01-03T12:06:11.052Z,1023.05
2023-01-03T12:08:11.009Z,1023.05
2023-01-03T12:09:11.016Z,1023.02
2023-01-03T12:10:10.990Z,1023.00
2023-01-03T12:11:10.993Z,1023.00
2023-01-03T12:12:10.991Z,1022.97
2023-01-03T12:13:10.980Z,1022.95